createdAt,value
2022-11-18T00:00:15.001Z,17.55
2022-11-18T00:02:42.969Z,16.13
2022-11-18T00:05:10.915Z,16.42
2022-11-18T00:07:40.161Z,16.95
2022-11-18T00:10:08.290Z,17.10
2022-11-18T00:12:53.467Z,16.95
2022-11-18T00:15:21.567Z,16.25
2022-11-18T00:17:49.555Z,16.83
2022-11-18T00:20:17.778Z,17.25
2022-11-18T00:22:47.483Z,15.75
2022-11-18T00:25:15.515Z,15.75
2022-11-18T00:27:43.896Z,16.65
2022-11-18T00:30:12.993Z,18.50
2022-11-18T00:32:41.212Z,16.88
2022-11-18T00:35:09.676Z,17.27
2022-11-18T00:37:37.645Z,17.23
2022-11-18T00:40:08.394Z,18.33
2022-11-18T00:42:54.287Z,16.40
2022-11-18T00:45:23.158Z,20.10
2022-11-18T00:47:51.076Z,20.27
2022-11-18T00:50:19.068Z,19.13
2022-11-18T00:52:47.529Z,19.15
2022-11-18T00:55:16.844Z,19.35
2022-11-18T00:57:44.825Z,19.98
2022-11-18T01:00:13.347Z,18.75
2022-11-18T01:02:41.323Z,19.05
2022-11-18T01:05:10.040Z,22.38
2022-11-18T01:07:38.152Z,21.63
2022-11-18T01:10:06.760Z,21.27
2022-11-18T01:12:54.747Z,19.77
2022-11-18T01:15:22.885Z,20.38
2022-11-18T01:17:50.972Z,19.42
2022-11-18T01:20:18.977Z,20.88
2022-11-18T01:22:47.277Z,20.92
2022-11-18T01:25:15.216Z,22.17
2022-11-18T01:27:44.829Z,23.45
2022-11-18T01:30:14.085Z,24.35
2022-11-18T01:32:41.983Z,25.75
2022-11-18T01:35:10.815Z,26.88
2022-11-18T01:37:38.882Z,26.85
2022-11-18T01:40:09.667Z,28.10
2022-11-18T01:42:38.111Z,26.52
2022-11-18T01:45:24.535Z,28.42
2022-11-18T01:47:58.177Z,28.00
2022-11-18T01:50:27.707Z,27.17
2022-11-18T01:52:59.529Z,27.98
2022-11-18T01:55:30.341Z,25.92
2022-11-18T01:58:06.988Z,27.50
2022-11-18T02:00:36.952Z,27.75
2022-11-18T02:03:05.794Z,28.20
2022-11-18T02:05:35.640Z,27.58
2022-11-18T02:08:04.693Z,25.80
2022-11-18T02:10:32.711Z,26.92
2022-11-18T02:13:01.662Z,27.20
2022-11-18T02:15:46.493Z,26.10
2022-11-18T02:18:25.791Z,24.90
2022-11-18T02:20:59.195Z,25.33
2022-11-18T02:24:00.730Z,24.58
2022-11-18T02:27:05.909Z,24.13
2022-11-18T02:29:39.726Z,24.10
2022-11-18T02:32:14.618Z,24.35
2022-11-18T02:34:50.138Z,22.00
2022-11-18T02:37:24.328Z,23.38
2022-11-18T02:39:59.306Z,21.77
2022-11-18T02:42:30.505Z,23.63
2022-11-18T02:45:04.570Z,23.50
2022-11-18T02:47:36.214Z,24.40
2022-11-18T02:50:07.551Z,22.38
2022-11-18T02:52:38.795Z,22.50
2022-11-18T02:55:12.334Z,24.00
2022-11-18T02:57:43.618Z,23.45
2022-11-18T03:00:14.574Z,24.95
2022-11-18T03:02:44.012Z,22.08
2022-11-18T03:05:18.303Z,22.90
2022-11-18T03:07:51.068Z,22.67
2022-11-18T03:10:23.151Z,21.88
2022-11-18T03:12:59.004Z,22.80
2022-11-18T03:15:36.325Z,23.13
2022-11-18T03:18:14.748Z,23.67
2022-11-18T03:20:51.065Z,23.05
2022-11-18T03:23:26.568Z,24.45
2022-11-18T03:25:57.915Z,23.38
2022-11-18T03:28:32.646Z,23.60
2022-11-18T03:31:07.457Z,21.70
2022-11-18T03:33:39.033Z,22.50
2022-11-18T03:36:11.642Z,21.65
2022-11-18T03:38:44.026Z,23.92
2022-11-18T03:41:15.172Z,23.45
2022-11-18T03:43:48.627Z,21.40
2022-11-18T03:46:21.910Z,22.33
2022-11-18T03:48:53.120Z,19.92
2022-11-18T03:51:25.074Z,21.67
2022-11-18T03:54:00.294Z,21.02
2022-11-18T03:56:35.700Z,23.17
2022-11-18T03:59:09.173Z,22.85
2022-11-18T04:01:42.938Z,23.02
2022-11-18T04:04:13.040Z,21.20
2022-11-18T04:06:47.140Z,23.27
2022-11-18T04:09:20.907Z,22.50
2022-11-18T04:12:06.377Z,23.75
2022-11-18T04:14:37.072Z,22.70
2022-11-18T04:17:10.610Z,22.88
2022-11-18T04:19:38.833Z,23.52
2022-11-18T04:22:07.579Z,23.30
2022-11-18T04:24:35.669Z,20.98
2022-11-18T04:27:04.961Z,22.17
2022-11-18T04:29:33.652Z,21.02
2022-11-18T04:32:02.555Z,22.25
2022-11-18T04:34:32.107Z,21.75
2022-11-18T04:37:00.567Z,21.70
2022-11-18T04:39:28.447Z,21.35
2022-11-18T04:41:59.216Z,21.95
2022-11-18T04:44:29.236Z,21.27
2022-11-18T04:46:58.631Z,20.25
2022-11-18T04:49:27.491Z,19.77
2022-11-18T04:51:57.385Z,19.08
2022-11-18T04:54:26.902Z,18.05
2022-11-18T04:56:55.376Z,17.35
2022-11-18T04:59:26.964Z,18.60
2022-11-18T05:01:55.736Z,16.52
2022-11-18T05:04:25.743Z,16.75
2022-11-18T05:06:54.230Z,15.35
2022-11-18T05:09:28.654Z,14.85
2022-11-18T05:12:16.877Z,14.55
2022-11-18T05:14:49.542Z,15.57
2022-11-18T05:17:18.085Z,15.40
2022-11-18T05:19:45.993Z,15.15
2022-11-18T05:22:15.911Z,14.82
2022-11-18T05:24:45.739Z,14.20
2022-11-18T05:27:14.405Z,14.90
2022-11-18T05:29:42.594Z,16.02
2022-11-18T05:32:11.120Z,14.55
2022-11-18T05:34:40.046Z,15.15
2022-11-18T05:37:08.400Z,14.95
2022-11-18T05:39:36.719Z,15.38
2022-11-18T05:42:24.293Z,15.50
2022-11-18T05:44:57.869Z,15.95
2022-11-18T05:47:27.072Z,16.05
2022-11-18T05:49:55.270Z,16.48
2022-11-18T05:52:23.518Z,15.52
2022-11-18T05:54:52.661Z,16.05
2022-11-18T05:57:22.344Z,16.90
2022-11-18T05:59:50.235Z,18.33
2022-11-18T06:02:22.919Z,16.15
2022-11-18T06:04:54.374Z,16.77
2022-11-18T06:07:26.694Z,17.80
2022-11-18T06:10:04.796Z,16.80
2022-11-18T06:12:40.234Z,18.90
2022-11-18T06:15:13.128Z,18.30
2022-11-18T06:17:46.742Z,17.55
2022-11-18T06:20:14.947Z,18.88
2022-11-18T06:22:46.573Z,19.83
2022-11-18T06:25:15.760Z,19.27
2022-11-18T06:27:45.961Z,18.23
2022-11-18T06:32:42.558Z,19.95
2022-11-18T06:35:11.114Z,18.83
2022-11-18T06:37:39.044Z,18.85
2022-11-18T06:40:08.155Z,17.67
2022-11-18T06:42:53.630Z,25.27
2022-11-18T06:45:23.045Z,22.13
2022-11-18T06:47:50.047Z,21.08
2022-11-18T06:50:18.537Z,19.35
2022-11-18T06:52:46.550Z,18.77
2022-11-18T06:55:14.701Z,17.48
2022-11-18T06:57:42.663Z,17.55
2022-11-18T07:00:11.796Z,17.67
2022-11-18T07:02:41.188Z,17.27
2022-11-18T07:05:09.439Z,17.63
2022-11-18T07:07:41.707Z,17.08
2022-11-18T07:10:11.148Z,16.20
2022-11-18T07:12:39.105Z,16.23
2022-11-18T07:15:07.897Z,15.70
2022-11-18T07:17:36.227Z,15.65
2022-11-18T07:20:06.161Z,17.33
2022-11-18T07:22:34.148Z,15.95
2022-11-18T07:25:02.132Z,15.80
2022-11-18T07:27:30.194Z,15.48
2022-11-18T07:29:58.111Z,16.00
2022-11-18T07:32:26.058Z,16.30
2022-11-18T07:34:54.042Z,14.75
2022-11-18T07:37:23.623Z,15.93
2022-11-18T07:39:51.643Z,14.23
2022-11-18T07:42:19.555Z,14.95
2022-11-18T07:44:47.566Z,14.65
2022-11-18T07:47:15.785Z,14.13
2022-11-18T07:49:43.757Z,14.73
2022-11-18T07:52:11.699Z,14.05
2022-11-18T07:54:41.266Z,14.98
2022-11-18T07:57:10.100Z,15.05
2022-11-18T07:59:38.035Z,16.95
2022-11-18T08:02:06.809Z,14.73
2022-11-18T08:04:34.768Z,14.85
2022-11-18T08:07:03.107Z,13.75
2022-11-18T08:09:31.316Z,13.77
2022-11-18T08:12:01.010Z,13.30
2022-11-18T08:14:29.312Z,12.95
2022-11-18T08:16:57.235Z,13.57
2022-11-18T08:19:25.202Z,13.52
2022-11-18T08:21:53.293Z,14.63
2022-11-18T08:24:21.309Z,13.65
2022-11-18T08:26:49.235Z,14.02
2022-11-18T08:29:24.563Z,13.30
2022-11-18T08:31:53.103Z,13.23
2022-11-18T08:34:20.947Z,12.80
2022-11-18T08:36:48.776Z,12.73
2022-11-18T08:39:17.130Z,12.98
2022-11-18T08:41:47.062Z,13.02
2022-11-18T08:44:17.278Z,13.93
2022-11-18T08:49:14.709Z,12.00
2022-11-18T08:51:42.806Z,12.82
2022-11-18T08:54:10.998Z,13.57
2022-11-18T08:56:39.205Z,12.95
2022-11-18T08:59:07.255Z,13.02
2022-11-18T09:01:35.703Z,13.35
2022-11-18T09:04:05.382Z,13.18
2022-11-18T09:06:35.847Z,15.00
2022-11-18T09:09:06.577Z,14.23
2022-11-18T09:11:35.430Z,13.70
2022-11-18T09:16:51.708Z,13.73
2022-11-18T09:22:10.110Z,13.13
2022-11-18T09:24:38.185Z,13.07
2022-11-18T09:27:13.641Z,13.45
2022-11-18T09:29:43.543Z,13.77
2022-11-18T09:32:11.745Z,14.40
2022-11-18T09:34:41.488Z,13.65
2022-11-18T09:37:09.641Z,14.10
2022-11-18T09:39:37.897Z,14.07
2022-11-18T09:42:19.276Z,14.40
2022-11-18T09:45:01.529Z,14.35
2022-11-18T09:47:31.393Z,14.20
2022-11-18T09:50:26.935Z,14.35
2022-11-18T09:53:05.479Z,13.75
2022-11-18T09:55:38.592Z,14.40
2022-11-18T09:58:07.512Z,13.93
2022-11-18T10:00:35.897Z,14.90
2022-11-18T10:03:06.697Z,14.73
2022-11-18T10:05:49.628Z,15.57
2022-11-18T10:08:24.951Z,15.57
2022-11-18T10:11:01.554Z,15.57
2022-11-18T10:13:43.786Z,15.68
2022-11-18T10:16:24.630Z,15.32
2022-11-18T10:19:01.138Z,15.50
2022-11-18T10:21:40.464Z,15.18
2022-11-18T10:24:14.406Z,16.48
2022-11-18T10:26:43.478Z,16.52
2022-11-18T10:29:11.563Z,19.08
2022-11-18T10:31:40.715Z,14.57
2022-11-18T10:34:14.899Z,13.52
2022-11-18T10:36:44.774Z,14.80
2022-11-18T10:39:14.675Z,14.93
2022-11-18T10:41:51.030Z,15.27
2022-11-18T10:44:40.871Z,11.60
2022-11-18T10:47:24.574Z,12.68
2022-11-18T10:49:53.277Z,11.93
2022-11-18T10:52:23.393Z,12.35
2022-11-18T10:55:09.762Z,11.23
2022-11-18T10:57:43.296Z,12.20
2022-11-18T11:00:36.704Z,14.65
2022-11-18T11:03:32.650Z,11.80
2022-11-18T11:06:38.227Z,12.18
2022-11-18T11:09:10.368Z,12.13
2022-11-18T11:11:43.329Z,13.35
2022-11-18T11:14:23.061Z,13.20
2022-11-18T11:16:58.803Z,13.43
2022-11-18T11:19:34.150Z,12.10
2022-11-18T11:22:02.606Z,15.15
2022-11-18T11:24:32.028Z,16.38
2022-11-18T11:30:21.334Z,14.05
2022-11-18T11:33:11.613Z,16.83
2022-11-18T11:38:19.756Z,15.10
2022-11-18T11:41:03.401Z,15.77
2022-11-18T11:43:40.782Z,17.80
2022-11-18T11:46:24.439Z,17.23
2022-11-18T11:48:59.530Z,17.67
2022-11-18T11:51:34.363Z,16.85
2022-11-18T11:54:15.380Z,16.02
2022-11-18T11:56:49.853Z,15.98
2022-11-18T11:59:26.122Z,16.40
2022-11-18T12:02:00.869Z,15.82
2022-11-18T12:04:41.235Z,14.82
2022-11-18T12:07:17.154Z,13.98
2022-11-18T12:09:57.770Z,14.68
2022-11-18T12:12:37.415Z,14.43
2022-11-18T12:15:17.467Z,15.32
2022-11-18T12:17:55.668Z,13.98
2022-11-18T12:20:40.959Z,15.45
2022-11-18T12:23:14.653Z,14.80
2022-11-18T12:25:57.350Z,13.48
2022-11-18T12:28:37.015Z,14.35
2022-11-18T12:31:38.568Z,12.55
2022-11-18T12:34:20.668Z,11.75
2022-11-18T12:36:49.151Z,11.88
2022-11-18T12:39:48.311Z,12.07
2022-11-18T12:42:54.424Z,12.27
2022-11-18T12:45:58.873Z,10.90
2022-11-18T12:48:46.146Z,12.85
2022-11-18T12:51:42.804Z,12.55
2022-11-18T12:54:33.221Z,13.98
2022-11-18T12:57:03.670Z,11.82
2022-11-18T12:59:34.333Z,12.23
2022-11-18T13:02:20.411Z,10.90
2022-11-18T13:05:06.125Z,10.93
2022-11-18T13:08:07.961Z,15.68
2022-11-18T13:10:41.525Z,12.40
2022-11-18T13:13:24.281Z,19.42
2022-11-18T13:16:09.940Z,11.57
2022-11-18T13:18:49.770Z,12.98
2022-11-18T13:21:51.986Z,12.25
2022-11-18T13:24:21.870Z,11.23
2022-11-18T13:26:56.495Z,12.27
2022-11-18T13:29:34.277Z,11.30
2022-11-18T13:32:15.944Z,11.90
2022-11-18T13:34:48.121Z,12.00
2022-11-18T13:37:23.306Z,11.38
2022-11-18T13:39:52.264Z,11.68
2022-11-18T13:42:22.467Z,12.80
2022-11-18T13:47:29.266Z,12.23
2022-11-18T13:50:05.715Z,12.63
2022-11-18T13:52:40.013Z,13.38
2022-11-18T13:55:14.063Z,13.35
2022-11-18T13:57:42.592Z,13.25
2022-11-18T14:00:23.276Z,15.43
2022-11-18T14:02:58.937Z,15.00
2022-11-18T14:05:27.696Z,15.82
2022-11-18T14:08:08.308Z,16.05
2022-11-18T14:10:45.173Z,12.55
2022-11-18T14:13:22.074Z,13.25
2022-11-18T14:15:50.340Z,12.23
2022-11-18T14:18:22.297Z,13.07
2022-11-18T14:20:55.105Z,12.30
2022-11-18T14:23:30.627Z,10.30
2022-11-18T14:26:00.377Z,9.77
2022-11-18T14:28:30.134Z,10.13
2022-11-18T14:31:01.383Z,9.77
2022-11-18T14:33:30.334Z,10.13
2022-11-18T14:35:59.961Z,11.07
2022-11-18T14:41:49.737Z,11.65
2022-11-18T14:44:19.326Z,12.50
2022-11-18T14:46:49.862Z,12.73
2022-11-18T14:49:19.977Z,12.68
2022-11-18T14:54:25.847Z,10.55
2022-11-18T14:56:58.619Z,10.05
2022-11-18T14:59:26.928Z,12.60
2022-11-18T15:01:55.009Z,12.13
2022-11-18T15:04:23.255Z,17.52
2022-11-18T15:06:51.189Z,26.40
2022-11-18T15:09:20.539Z,13.55
2022-11-18T15:11:48.698Z,10.57
2022-11-18T15:14:16.820Z,11.95
2022-11-18T15:16:45.156Z,10.65
2022-11-18T15:19:16.141Z,14.63
2022-11-18T15:21:45.336Z,17.02
2022-11-18T15:24:13.663Z,16.60
2022-11-18T15:26:45.306Z,17.13
2022-11-18T15:29:18.418Z,15.48
2022-11-18T15:31:46.776Z,14.60
2022-11-18T15:34:14.953Z,14.48
2022-11-18T15:36:42.918Z,17.05
2022-11-18T15:39:11.708Z,14.52
2022-11-18T15:41:42.839Z,14.95
2022-11-18T15:44:11.994Z,14.63
2022-11-18T15:46:40.397Z,15.02
2022-11-18T15:49:09.887Z,16.00
2022-11-18T15:51:38.053Z,14.10
2022-11-18T15:54:06.100Z,14.30
2022-11-18T15:56:34.570Z,15.75
2022-11-18T15:59:05.604Z,20.20
2022-11-18T16:01:35.375Z,15.70
2022-11-18T16:04:04.022Z,16.35
2022-11-18T16:06:32.578Z,15.95
2022-11-18T16:09:00.804Z,15.30
2022-11-18T16:11:47.067Z,16.48
2022-11-18T16:14:18.232Z,16.08
2022-11-18T16:16:49.028Z,17.00
2022-11-18T16:19:19.673Z,16.60
2022-11-18T16:21:49.186Z,17.80
2022-11-18T16:24:19.075Z,19.65
2022-11-18T16:26:47.270Z,17.15
2022-11-18T16:29:18.392Z,20.17
2022-11-18T16:31:51.026Z,22.23
2022-11-18T16:34:20.744Z,17.80
2022-11-18T16:36:51.016Z,18.58
2022-11-18T16:39:23.470Z,24.23
2022-11-18T16:41:52.285Z,20.77
2022-11-18T16:44:21.770Z,20.48
2022-11-18T16:46:51.390Z,19.90
2022-11-18T16:49:21.879Z,19.42
2022-11-18T16:51:52.146Z,21.48
2022-11-18T16:54:22.881Z,20.85
2022-11-18T16:56:52.105Z,23.38
2022-11-18T16:59:23.621Z,22.30
2022-11-18T17:01:53.138Z,24.10
2022-11-18T17:04:23.485Z,44.33
2022-11-18T17:06:52.048Z,23.38
2022-11-18T17:09:22.398Z,23.88
2022-11-18T17:11:51.325Z,24.42
2022-11-18T17:14:19.892Z,24.15
2022-11-18T17:16:50.357Z,24.88
2022-11-18T17:19:20.954Z,27.92
2022-11-18T17:21:49.752Z,23.83
2022-11-18T17:24:21.860Z,24.33
2022-11-18T17:26:50.854Z,23.70
2022-11-18T17:29:19.385Z,26.27
2022-11-18T17:31:47.427Z,31.20
2022-11-18T17:34:17.668Z,26.83
2022-11-18T17:36:45.883Z,26.75
2022-11-18T17:39:14.562Z,28.08
2022-11-18T17:42:00.388Z,28.33
2022-11-18T17:44:28.793Z,27.52
2022-11-18T17:46:57.063Z,28.02
2022-11-18T17:49:26.460Z,29.48
2022-11-18T17:51:54.307Z,31.30
2022-11-18T17:54:23.213Z,29.83
2022-11-18T17:56:52.322Z,34.83
2022-11-18T17:59:20.642Z,33.80
2022-11-18T18:01:50.768Z,33.80
2022-11-18T18:04:22.962Z,35.45
2022-11-18T18:06:52.989Z,35.55
2022-11-18T18:11:58.945Z,37.85
2022-11-18T18:14:26.353Z,37.08
2022-11-18T18:16:54.537Z,37.47
2022-11-18T18:19:23.649Z,37.20
2022-11-18T18:21:53.801Z,37.25
2022-11-18T18:26:50.237Z,38.85
2022-11-18T18:29:18.244Z,38.92
2022-11-18T18:31:46.273Z,38.55
2022-11-18T18:34:14.329Z,39.88
2022-11-18T18:36:42.324Z,41.33
2022-11-18T18:39:11.798Z,41.33
2022-11-18T18:41:39.959Z,40.80
2022-11-18T18:44:08.414Z,42.65
2022-11-18T18:46:36.731Z,41.40
2022-11-18T18:49:08.162Z,45.53
2022-11-18T18:51:38.124Z,44.17
2022-11-18T18:54:06.898Z,42.38
2022-11-18T18:56:36.235Z,42.00
2022-11-18T18:59:04.414Z,44.10
2022-11-18T19:01:33.629Z,43.72
2022-11-18T19:04:03.626Z,44.75
2022-11-18T19:06:56.957Z,44.72
2022-11-18T19:12:08.569Z,45.55
2022-11-18T19:14:36.904Z,46.10
2022-11-18T19:17:10.107Z,44.60
2022-11-18T19:19:56.872Z,43.63
2022-11-18T19:22:24.839Z,45.70
2022-11-18T19:24:53.569Z,43.15
2022-11-18T19:27:23.883Z,45.40
2022-11-18T19:29:52.168Z,43.72
2022-11-18T19:32:20.373Z,42.25
2022-11-18T19:34:48.935Z,41.90
2022-11-18T19:37:17.034Z,40.20
2022-11-18T19:39:44.967Z,41.45
2022-11-18T19:42:13.218Z,43.03
2022-11-18T19:44:42.646Z,39.33
2022-11-18T19:47:10.804Z,39.85
2022-11-18T19:49:38.986Z,38.55
2022-11-18T19:52:07.037Z,38.45
2022-11-18T19:54:35.154Z,37.47
2022-11-18T19:57:04.059Z,37.75
2022-11-18T19:59:32.144Z,35.05
2022-11-18T20:02:01.940Z,37.45
2022-11-18T20:04:30.088Z,39.72
2022-11-18T20:06:58.279Z,38.70
2022-11-18T20:09:26.544Z,37.28
2022-11-18T20:11:55.555Z,38.47
2022-11-18T20:14:23.656Z,37.83
2022-11-18T20:16:52.864Z,37.50
2022-11-18T20:19:22.867Z,41.43
2022-11-18T20:21:52.511Z,40.25
2022-11-18T20:24:20.508Z,38.90
2022-11-18T20:26:48.794Z,37.72
2022-11-18T20:29:17.437Z,41.10
2022-11-18T20:31:45.986Z,39.22
2022-11-18T20:34:14.961Z,41.50
2022-11-18T20:36:44.862Z,40.38
2022-11-18T20:39:15.348Z,39.10
2022-11-18T20:42:03.998Z,41.47
2022-11-18T20:44:32.069Z,40.25
2022-11-18T20:47:00.218Z,41.47
2022-11-18T20:49:28.436Z,41.00
2022-11-18T20:54:27.528Z,41.67
2022-11-18T20:56:55.701Z,39.28
2022-11-18T20:59:23.593Z,41.83
2022-11-18T21:01:51.557Z,41.70
2022-11-18T21:04:19.492Z,41.17
2022-11-18T21:06:47.986Z,40.67
2022-11-18T21:09:17.740Z,43.03
2022-11-18T21:11:45.873Z,40.42
2022-11-18T21:14:23.936Z,40.10
2022-11-18T21:16:54.097Z,41.38
2022-11-18T21:19:22.569Z,41.80
2022-11-18T21:21:52.408Z,43.45
2022-11-18T21:24:23.074Z,40.53
2022-11-18T21:26:54.591Z,44.28
2022-11-18T21:29:24.264Z,42.70
2022-11-18T21:31:53.284Z,46.13
2022-11-18T21:34:22.502Z,43.83
2022-11-18T21:36:54.634Z,44.50
2022-11-18T21:39:25.171Z,44.53
2022-11-18T21:41:57.622Z,44.78
2022-11-18T21:44:28.086Z,45.80
2022-11-18T21:46:57.312Z,45.10
2022-11-18T21:49:25.339Z,45.47
2022-11-18T21:51:53.502Z,46.97
2022-11-18T21:54:21.434Z,48.40
2022-11-18T21:56:50.953Z,48.20
2022-11-18T21:59:19.361Z,47.53
2022-11-18T22:01:47.422Z,47.33
2022-11-18T22:04:35.772Z,45.10
2022-11-18T22:07:03.823Z,47.35
2022-11-18T22:09:36.375Z,45.38
2022-11-18T22:12:07.957Z,45.22
2022-11-18T22:14:36.709Z,44.83
2022-11-18T22:17:05.275Z,45.05
2022-11-18T22:19:33.173Z,46.05
2022-11-18T22:22:01.158Z,47.45
2022-11-18T22:24:29.182Z,45.83
2022-11-18T22:26:57.306Z,43.92
2022-11-18T22:29:26.667Z,45.47
2022-11-18T22:31:54.646Z,44.17
2022-11-18T22:34:22.610Z,44.95
2022-11-18T22:36:50.546Z,44.55
2022-11-18T22:39:19.059Z,49.45
2022-11-18T22:42:04.618Z,42.83
2022-11-18T22:44:34.014Z,44.53
2022-11-18T22:47:02.204Z,43.20
2022-11-18T22:49:30.287Z,43.97
2022-11-18T22:51:58.583Z,43.65
2022-11-18T22:54:41.925Z,41.75
2022-11-18T22:57:10.084Z,44.78
2022-11-18T22:59:39.335Z,43.05
2022-11-18T23:02:07.560Z,47.50
2022-11-18T23:04:35.734Z,43.47
2022-11-18T23:07:03.991Z,45.13
2022-11-18T23:09:32.081Z,42.55
2022-11-18T23:12:17.429Z,45.42
2022-11-18T23:14:47.051Z,42.58
2022-11-18T23:17:15.952Z,43.35
2022-11-18T23:19:44.416Z,42.47
2022-11-18T23:22:12.749Z,41.53
2022-11-18T23:24:40.838Z,44.08
2022-11-18T23:27:08.903Z,41.53
2022-11-18T23:29:36.946Z,41.92
2022-11-18T23:32:06.418Z,52.17
2022-11-18T23:34:34.361Z,43.00
2022-11-18T23:37:02.582Z,41.60
2022-11-18T23:39:30.488Z,41.53
2022-11-18T23:41:58.456Z,41.20
2022-11-18T23:44:40.373Z,42.83
2022-11-18T23:47:09.744Z,42.28
2022-11-18T23:49:37.632Z,43.78
2022-11-18T23:52:06.222Z,40.70
2022-11-18T23:54:34.196Z,54.47
2022-11-18T23:57:04.540Z,68.72
2022-11-18T23:59:33.299Z,44.58
